Flight Track Log - Related Links

Times and Time Zones

All times are in EDT time to prevent confusion due to time zone crossing. See the AWI3786 flight status page for this flight to view local times or setup timezone preferences in your user account.

Time Position Orientation Groundspeed Altitude Reporting Facility
EDT Latitude Longitude Course Direction KTS MPH feet Rate Location/Type
Fri 11:28:33 PM 38.9000 -77.0833 333° Northwest 197 227 2,800  Level Potomac TRACON
Fri 11:29:27 PM 38.9500 -77.1167 333° Northwest 244 281 4,700 2,600 Climbing Potomac TRACON
Fri 11:30:33 PM 38.9833 -77.2000 297° West 242 278 8,000 2,286 Climbing Potomac TRACON
Fri 11:32:57 PM 39.0731 -77.3936 301° West 265 305 12,700 1,873 Climbing Washington Center
Fri 11:33:58 PM 39.1469 -77.4597 325° Northwest 289 333 14,400 1,587 Climbing Washington Center
Fri 11:34:58 PM 39.2231 -77.5286 325° Northwest 316 364 15,900 1,438 Climbing Washington Center
Fri 11:35:59 PM 39.3031 -77.6031 324° Northwest 335 386 17,300 1,091 Climbing Washington Center
Fri 11:36:59 PM 39.3853 -77.6781 325° Northwest 348 400 18,100 814 Climbing Washington Center
Fri 11:37:57 PM 39.4714 -77.7583 324° Northwest 365 420 18,900 900 Climbing Washington Center
Fri 11:38:59 PM 39.5636 -77.8419 325° Northwest 384 442 19,900 907 Climbing Washington Center
Fri 11:41:22 PM 39.7781 -78.0383 325° Northwest 398 458 22,000 621 Climbing Cleveland Center
Fri 11:42:22 PM 39.8636 -78.1325 320° Northwest 404 465 22,000  Level Cleveland Center
Fri 11:43:21 PM 39.9347 -78.2383 311° West 393 452 22,000  Level Cleveland Center
Fri 11:44:22 PM 40.0219 -78.3275 322° Northwest 379 436 22,000  Level Cleveland Center
Fri 11:45:21 PM 40.1369 -78.3428 354° North 367 422 22,000  Level Cleveland Center
Fri 11:46:22 PM 40.2475 -78.3525 356° North 381 438 22,000  Level Cleveland Center
Fri 11:47:22 PM 40.3603 -78.3625 356° North 391 450 22,000  Level Cleveland Center
Fri 11:48:22 PM 40.4689 -78.3750 355° North 391 450 22,000  Level Cleveland Center
Fri 11:49:22 PM 40.5778 -78.3881 355° North 391 450 22,000  Level Cleveland Center
Fri 11:50:22 PM 40.6842 -78.3981 356° North 391 450 22,000  Level Cleveland Center
Fri 11:51:22 PM 40.7844 -78.4086 355° North 391 450 22,000  Level Cleveland Center
Fri 11:52:22 PM 40.9056 -78.4208 356° North 391 450 22,000  Level Cleveland Center
Fri 11:53:22 PM 41.0164 -78.4311 356° North 397 457 22,000  Level Cleveland Center
Fri 11:54:22 PM 41.1250 -78.4442 355° North 391 450 22,000  Level Cleveland Center
Fri 11:55:21 PM 41.2336 -78.4569 355° North 391 450 22,000  Level Cleveland Center
Fri 11:56:22 PM 41.3422 -78.4700 355° North 391 450 22,000  Level Cleveland Center
Fri 11:57:21 PM 41.4508 -78.4803 356° North 391 450 22,000  Level Cleveland Center
Fri 11:58:21 PM 41.5594 -78.4908 356° North 391 450 22,000  Level Cleveland Center
Fri 11:59:22 PM 41.6639 -78.5042 355° North 386 444 22,000  Level Cleveland Center
Sat 12:00:21 AM 41.7747 -78.5144 356° North 386 444 22,000  Level Cleveland Center
Sat 12:01:22 AM 41.8811 -78.5278 355° North 386 444 22,000  Level Cleveland Center
Sat 12:02:22 AM 41.9878 -78.5411 355° North 386 444 22,000  Level Cleveland Center
Sat 12:03:22 AM 42.0942 -78.5517 356° North 391 450 22,000  Level Cleveland Center
Sat 12:04:22 AM 42.1925 -78.5625 355° North 385 443 22,000  Level Cleveland Center
Sat 12:05:22 AM 42.2911 -78.6014 344° North 380 437 22,000  Level Cleveland Center
Sat 12:06:22 AM 42.3839 -78.6717 331° Northwest 370 426 22,000  Level Cleveland Center
Sat 12:07:22 AM 42.4808 -78.7419 332° Northwest 384 442 22,000  Level Cleveland Center
Sat 12:08:22 AM 42.5822 -78.8153 332° Northwest 404 465 22,000 -100 Level Cleveland Center
Sat 12:09:22 AM 42.6856 -78.8914 332° Northwest 409 471 21,800 -605 Descending Cleveland Center
Sat 12:10:21 AM 42.7886 -78.9678 331° Northwest 420 483 20,800 -1,261 Descending Cleveland Center
Sat 12:11:21 AM 42.8856 -79.0417 331° Northwest 414 476 19,300 -1,587 Descending Cleveland Center
Sat 12:12:22 AM 42.9844 -79.1131 332° Northwest 406 467 17,600 -1,669 Descending Cleveland Center
Sat 12:13:34 AM 43.1000 -79.1833 336° Northwest 380 437 15,600 -1,591 Descending Toronto Center
Sat 12:14:34 AM 43.1833 -79.2500 330° Northwest 350 403 14,100 -1,550 Descending Toronto Center
Sat 12:15:34 AM 43.2500 -79.3167 324° Northwest 310 357 12,500 -1,600 Descending Toronto Center

Login

Don't have an account? Register now (free) for customized features, flight alerts, and more!